createdAt,value
2023-05-07T00:00:06.646Z,97.71
2023-05-07T00:01:06.643Z,97.61
2023-05-07T00:02:06.607Z,98.11
2023-05-07T00:03:06.757Z,98.02
2023-05-07T00:04:06.834Z,97.91
2023-05-07T00:05:06.717Z,97.40
2023-05-07T00:06:06.587Z,97.71
2023-05-07T00:07:06.697Z,97.91
2023-05-07T00:08:06.639Z,97.50
2023-05-07T00:09:06.618Z,98.02
2023-05-07T00:10:06.557Z,97.71
2023-05-07T00:11:06.548Z,97.71
2023-05-07T00:12:06.542Z,97.71
2023-05-07T00:13:06.619Z,97.86
2023-05-07T00:14:06.563Z,98.32
2023-05-07T00:15:06.513Z,98.27
2023-05-07T00:16:06.509Z,98.73
2023-05-07T00:17:06.535Z,97.86
2023-05-07T00:18:06.676Z,97.91
2023-05-07T00:19:06.496Z,97.81
2023-05-07T00:20:06.541Z,98.16
2023-05-07T00:21:06.474Z,98.27
2023-05-07T00:22:07.494Z,99.18
2023-05-07T00:23:06.452Z,98.22
2023-05-07T00:24:06.536Z,97.96
2023-05-07T00:25:06.507Z,97.61
2023-05-07T00:26:06.430Z,98.02
2023-05-07T00:27:06.461Z,97.91
2023-05-07T00:28:06.440Z,97.75
2023-05-07T00:29:06.401Z,97.91
2023-05-07T00:30:06.394Z,97.81
2023-05-07T00:31:06.415Z,98.02
2023-05-07T00:32:06.461Z,97.91
2023-05-07T00:33:06.390Z,97.81
2023-05-07T00:34:06.381Z,98.02
2023-05-07T00:35:06.359Z,97.50
2023-05-07T00:36:06.938Z,97.86
2023-05-07T00:37:06.916Z,98.06
2023-05-07T00:38:07.335Z,97.75
2023-05-07T00:39:06.341Z,97.71
2023-05-07T00:40:06.501Z,97.91
2023-05-07T00:41:06.342Z,98.06
2023-05-07T00:42:06.302Z,97.96
2023-05-07T00:43:06.309Z,97.96
2023-05-07T00:44:06.293Z,97.81
2023-05-07T00:45:06.279Z,97.75
2023-05-07T00:46:06.425Z,98.02
2023-05-07T00:47:06.346Z,97.86
2023-05-07T00:48:06.298Z,98.32
2023-05-07T00:49:06.265Z,98.06
2023-05-07T00:50:06.304Z,97.71
2023-05-07T00:51:06.309Z,97.75
2023-05-07T00:52:06.257Z,98.22
2023-05-07T00:53:06.232Z,98.02
2023-05-07T00:54:06.215Z,98.02
2023-05-07T00:55:06.289Z,97.91
2023-05-07T00:56:06.201Z,97.75
2023-05-07T00:57:06.204Z,98.16
2023-05-07T00:58:06.181Z,97.86
2023-05-07T00:59:06.206Z,97.45
2023-05-07T01:00:06.262Z,98.16
2023-05-07T01:01:06.265Z,98.06
2023-05-07T01:02:06.157Z,97.86
2023-05-07T01:03:06.202Z,97.96
2023-05-07T01:04:06.169Z,98.06
2023-05-07T01:05:06.174Z,97.65
2023-05-07T01:06:06.116Z,97.96
2023-05-07T01:07:06.104Z,97.96
2023-05-07T01:08:06.184Z,97.75
2023-05-07T01:09:06.165Z,97.75
2023-05-07T01:10:06.116Z,97.55
2023-05-07T01:11:06.090Z,98.16
2023-05-07T01:12:07.086Z,98.06
2023-05-07T01:13:06.767Z,97.96
2023-05-07T01:14:06.089Z,97.75
2023-05-07T01:15:06.055Z,97.96
2023-05-07T01:16:06.045Z,98.16
2023-05-07T01:17:06.069Z,98.00
2023-05-07T01:18:06.097Z,98.16
2023-05-07T01:19:06.049Z,97.80
2023-05-07T01:20:06.022Z,98.16
2023-05-07T01:21:06.020Z,97.75
2023-05-07T01:22:05.998Z,97.75
2023-05-07T01:23:06.008Z,97.96
2023-05-07T01:24:06.050Z,98.11
2023-05-07T01:25:05.988Z,97.75
2023-05-07T01:26:05.998Z,97.80
2023-05-07T01:27:05.968Z,98.41
2023-05-07T01:28:06.022Z,98.21
2023-05-07T01:29:05.963Z,98.41
2023-05-07T01:30:05.976Z,97.80
2023-05-07T01:31:05.956Z,97.90
2023-05-07T01:32:05.910Z,97.96
2023-05-07T01:33:05.954Z,97.90
2023-05-07T01:34:05.929Z,98.00
2023-05-07T01:35:05.906Z,97.90
2023-05-07T01:36:05.891Z,98.41
2023-05-07T01:37:05.961Z,98.00
2023-05-07T01:38:05.922Z,97.90
2023-05-07T01:39:05.885Z,98.11
2023-05-07T01:40:05.858Z,98.11
2023-05-07T01:41:05.852Z,97.60
2023-05-07T01:42:05.838Z,98.00
2023-05-07T01:43:05.928Z,97.70
2023-05-07T01:44:06.071Z,98.00
2023-05-07T01:45:05.953Z,98.21
2023-05-07T01:46:05.829Z,98.25
2023-05-07T01:47:05.840Z,98.41
2023-05-07T01:48:05.854Z,98.00
2023-05-07T01:49:05.790Z,97.85
2023-05-07T01:50:05.772Z,97.85
2023-05-07T01:51:05.784Z,98.46
2023-05-07T01:52:05.789Z,98.36
2023-05-07T01:53:05.748Z,98.86
2023-05-07T01:54:05.736Z,99.07
2023-05-07T01:55:05.725Z,98.46
2023-05-07T01:56:05.735Z,98.46
2023-05-07T01:57:05.739Z,98.46
2023-05-07T01:58:05.730Z,98.86
2023-05-07T01:59:05.704Z,98.97
2023-05-07T02:00:05.763Z,98.36
2023-05-07T02:01:05.748Z,98.86
2023-05-07T02:02:05.730Z,99.18
2023-05-07T02:03:05.746Z,98.66
2023-05-07T02:04:05.724Z,98.40
2023-05-07T02:05:05.669Z,98.77
2023-05-07T02:06:05.674Z,98.71
2023-05-07T02:07:05.729Z,98.97
2023-05-07T02:08:05.631Z,99.02
2023-05-07T02:09:05.661Z,98.77
2023-05-07T02:10:05.623Z,98.91
2023-05-07T02:11:05.645Z,98.71
2023-05-07T02:12:05.628Z,98.71
2023-05-07T02:13:05.648Z,98.71
2023-05-07T02:14:05.601Z,99.22
2023-05-07T02:15:05.626Z,98.91
2023-05-07T02:16:05.781Z,99.22
2023-05-07T02:17:05.593Z,98.91
2023-05-07T02:18:05.598Z,98.30
2023-05-07T02:19:05.568Z,98.50
2023-05-07T02:20:05.577Z,98.40
2023-05-07T02:21:05.623Z,98.71
2023-05-07T02:22:05.532Z,99.02
2023-05-07T02:23:05.522Z,98.81
2023-05-07T02:24:05.519Z,99.02
2023-05-07T02:25:05.548Z,99.27
2023-05-07T02:26:05.503Z,98.40
2023-05-07T02:27:05.496Z,98.61
2023-05-07T02:28:05.516Z,98.81
2023-05-07T02:29:05.478Z,98.61
2023-05-07T02:30:05.511Z,98.91
2023-05-07T02:31:05.477Z,98.71
2023-05-07T02:32:05.619Z,98.81
2023-05-07T02:33:05.462Z,99.02
2023-05-07T02:34:05.463Z,99.27
2023-05-07T02:35:05.524Z,99.02
2023-05-07T02:36:05.438Z,99.16
2023-05-07T02:37:05.434Z,98.65
2023-05-07T02:38:05.417Z,98.40
2023-05-07T02:39:05.434Z,98.45
2023-05-07T02:40:05.568Z,98.35
2023-05-07T02:41:06.365Z,98.20
2023-05-07T02:42:05.388Z,97.94
2023-05-07T02:43:05.379Z,98.45
2023-05-07T02:44:05.390Z,98.45
2023-05-07T02:45:05.509Z,98.35
2023-05-07T02:46:05.397Z,99.02
2023-05-07T02:47:05.360Z,98.75
2023-05-07T02:48:05.499Z,98.55
2023-05-07T02:49:05.473Z,98.96
2023-05-07T02:50:05.313Z,98.96
2023-05-07T02:51:05.317Z,98.96
2023-05-07T02:52:05.345Z,99.06
2023-05-07T02:53:05.363Z,98.75
2023-05-07T02:54:05.318Z,98.35
2023-05-07T02:55:05.312Z,98.45
2023-05-07T02:56:05.301Z,98.55
2023-05-07T02:57:06.276Z,99.22
2023-05-07T02:58:06.172Z,98.86
2023-05-07T02:59:05.255Z,98.75
2023-05-07T03:00:05.242Z,99.06
2023-05-07T03:01:06.300Z,98.75
2023-05-07T03:02:05.261Z,99.06
2023-05-07T03:03:05.296Z,98.96
2023-05-07T03:04:05.272Z,98.86
2023-05-07T03:05:05.225Z,99.06
2023-05-07T03:06:05.208Z,99.01
2023-05-07T03:07:05.230Z,98.75
2023-05-07T03:08:05.194Z,98.86
2023-05-07T03:09:05.173Z,99.16
2023-05-07T03:10:05.173Z,98.96
2023-05-07T03:11:05.172Z,99.06
2023-05-07T03:12:05.185Z,99.01
2023-05-07T03:13:05.196Z,98.49
2023-05-07T03:14:05.182Z,98.45
2023-05-07T03:15:05.161Z,98.96
2023-05-07T03:16:05.181Z,98.90
2023-05-07T03:17:05.148Z,98.96
2023-05-07T03:18:05.223Z,98.80
2023-05-07T03:19:05.233Z,98.86
2023-05-07T03:20:05.269Z,98.90
2023-05-07T03:21:05.159Z,99.11
2023-05-07T03:22:05.103Z,99.11
2023-05-07T03:23:05.074Z,98.86
2023-05-07T03:24:05.086Z,99.21
2023-05-07T03:25:05.059Z,99.41
2023-05-07T03:26:05.071Z,98.90
2023-05-07T03:27:05.078Z,98.90
2023-05-07T03:28:05.036Z,99.31
2023-05-07T03:29:05.024Z,99.21
2023-05-07T03:30:05.041Z,99.21
2023-05-07T03:31:05.070Z,99.21
2023-05-07T03:32:05.010Z,99.05
2023-05-07T03:33:05.070Z,99.26
2023-05-07T03:34:04.992Z,99.21
2023-05-07T03:35:05.802Z,99.36
2023-05-07T03:36:05.173Z,99.41
2023-05-07T03:37:04.970Z,99.52
2023-05-07T03:38:04.953Z,99.26
2023-05-07T03:39:04.950Z,99.36
2023-05-07T03:40:05.081Z,99.26
2023-05-07T03:41:04.936Z,99.11
2023-05-07T03:42:04.930Z,99.26
2023-05-07T03:43:04.923Z,99.41
2023-05-07T03:44:04.915Z,99.66
2023-05-07T03:45:04.928Z,99.36
2023-05-07T03:46:04.917Z,98.95
2023-05-07T03:47:05.871Z,99.15
2023-05-07T03:48:04.905Z,99.05
2023-05-07T03:49:04.868Z,99.56
2023-05-07T03:50:04.896Z,99.26
2023-05-07T03:51:04.858Z,99.36
2023-05-07T03:52:04.930Z,99.05
2023-05-07T03:53:04.866Z,99.36
2023-05-07T03:54:04.876Z,99.05
2023-05-07T03:55:04.860Z,99.46
2023-05-07T03:56:04.832Z,99.31
2023-05-07T03:57:04.912Z,99.62
2023-05-07T03:58:04.829Z,99.36
2023-05-07T03:59:04.841Z,99.46
2023-05-07T04:00:04.817Z,99.36
2023-05-07T04:01:04.875Z,99.31
2023-05-07T04:02:05.682Z,99.31
2023-05-07T04:03:04.888Z,99.36
2023-05-07T04:04:04.970Z,99.05
2023-05-07T04:05:04.758Z,99.21
2023-05-07T04:06:04.749Z,99.26
2023-05-07T04:07:05.739Z,99.05
2023-05-07T04:08:04.916Z,99.15
2023-05-07T04:09:04.750Z,99.36
2023-05-07T04:10:04.716Z,99.15
2023-05-07T04:11:04.732Z,98.90
2023-05-07T04:12:04.706Z,99.31
2023-05-07T04:13:05.266Z,98.95
2023-05-07T04:14:04.782Z,99.52
2023-05-07T04:15:04.681Z,99.26
2023-05-07T04:16:04.684Z,99.36
2023-05-07T04:17:04.750Z,99.26
2023-05-07T04:18:04.729Z,99.36
2023-05-07T04:19:04.664Z,99.26
2023-05-07T04:20:04.643Z,99.36
2023-05-07T04:21:04.639Z,99.31
2023-05-07T04:22:05.655Z,99.36
2023-05-07T04:23:04.663Z,99.56
2023-05-07T04:24:04.673Z,99.15
2023-05-07T04:25:04.687Z,98.95
2023-05-07T04:26:04.615Z,99.26
2023-05-07T04:27:04.627Z,99.26
2023-05-07T04:28:04.609Z,99.46
2023-05-07T04:29:04.636Z,99.46
2023-05-07T04:30:04.573Z,99.26
2023-05-07T04:31:04.596Z,99.46
2023-05-07T04:32:04.677Z,99.46
2023-05-07T04:33:04.627Z,99.36
2023-05-07T04:34:04.539Z,99.15
2023-05-07T04:35:04.539Z,99.36
2023-05-07T04:36:04.573Z,99.26
2023-05-07T04:37:04.606Z,98.85
2023-05-07T04:38:04.511Z,98.95
2023-05-07T04:39:04.598Z,99.36
2023-05-07T04:40:04.575Z,99.15
2023-05-07T04:41:04.538Z,99.36
2023-05-07T04:42:04.493Z,99.26
2023-05-07T04:43:04.468Z,99.46
2023-05-07T04:44:04.470Z,99.01
2023-05-07T04:45:04.472Z,99.15
2023-05-07T04:46:04.500Z,99.41
2023-05-07T04:47:04.452Z,99.26
2023-05-07T04:48:04.533Z,99.15
2023-05-07T04:49:04.427Z,99.15
2023-05-07T04:50:04.449Z,99.36
2023-05-07T04:51:04.436Z,99.41
2023-05-07T04:52:04.425Z,98.85
2023-05-07T04:53:04.394Z,99.05
2023-05-07T04:54:04.383Z,99.41
2023-05-07T04:55:04.452Z,98.95
2023-05-07T04:56:04.396Z,99.11
2023-05-07T04:57:04.363Z,99.41
2023-05-07T04:58:04.357Z,98.90
2023-05-07T04:59:04.360Z,99.01
2023-05-07T05:00:04.376Z,99.11
2023-05-07T05:01:04.418Z,98.90
2023-05-07T05:02:04.346Z,98.70
2023-05-07T05:03:04.363Z,98.90
2023-05-07T05:04:04.393Z,99.15
2023-05-07T05:05:04.327Z,98.60
2023-05-07T05:06:04.396Z,98.80
2023-05-07T05:07:04.341Z,99.11
2023-05-07T05:08:04.293Z,97.88
2023-05-07T05:09:04.321Z,98.39
2023-05-07T05:10:04.299Z,98.49
2023-05-07T05:11:04.280Z,98.19
2023-05-07T05:12:04.499Z,97.88
2023-05-07T05:13:04.279Z,98.19
2023-05-07T05:14:04.270Z,97.98
2023-05-07T05:15:04.230Z,97.88
2023-05-07T05:16:04.270Z,98.19
2023-05-07T05:17:04.234Z,97.78
2023-05-07T05:18:04.259Z,97.98
2023-05-07T05:19:04.245Z,98.29
2023-05-07T05:20:04.275Z,97.88
2023-05-07T05:21:04.203Z,97.47
2023-05-07T05:22:04.230Z,97.88
2023-05-07T05:23:04.232Z,97.78
2023-05-07T05:24:04.178Z,98.08
2023-05-07T05:25:04.212Z,97.88
2023-05-07T05:26:04.160Z,97.78
2023-05-07T05:27:04.157Z,97.47
2023-05-07T05:28:04.215Z,97.47
2023-05-07T05:29:04.126Z,97.57
2023-05-07T05:30:04.131Z,97.47
2023-05-07T05:31:04.123Z,97.47
2023-05-07T05:32:04.280Z,97.57
2023-05-07T05:33:04.167Z,97.57
2023-05-07T05:34:04.106Z,97.78
2023-05-07T05:35:04.082Z,97.88
2023-05-07T05:36:04.087Z,97.47
2023-05-07T05:37:04.096Z,97.37
2023-05-07T05:38:04.065Z,97.57
2023-05-07T05:40:14.582Z,97.98
2023-05-07T05:41:14.603Z,97.78
2023-05-07T05:42:14.617Z,97.78
2023-05-07T05:43:14.731Z,97.37
2023-05-07T05:44:14.594Z,97.57
2023-05-07T05:45:14.572Z,97.94
2023-05-07T05:46:14.796Z,97.37
2023-05-07T05:47:14.576Z,97.88
2023-05-07T05:48:14.632Z,97.42
2023-05-07T05:49:14.547Z,97.83
2023-05-07T05:50:14.541Z,97.22
2023-05-07T05:51:14.553Z,97.16
2023-05-07T05:52:15.671Z,97.12
2023-05-07T05:53:15.643Z,96.61
2023-05-07T05:54:15.648Z,97.94
2023-05-07T05:55:15.650Z,96.30
2023-05-07T05:56:15.662Z,96.55
2023-05-07T05:57:15.607Z,96.96
2023-05-07T05:58:15.606Z,96.66
2023-05-07T05:59:15.626Z,96.61
2023-05-07T06:00:15.653Z,96.75
2023-05-07T06:01:15.621Z,96.75
2023-05-07T06:02:15.726Z,97.37
2023-05-07T06:03:15.615Z,96.96
2023-05-07T06:04:15.561Z,97.27
2023-05-07T06:05:15.633Z,96.75
2023-05-07T06:06:15.569Z,97.42
2023-05-07T06:07:15.535Z,97.78
2023-05-07T06:08:15.529Z,96.96
2023-05-07T06:09:15.796Z,96.86
2023-05-07T06:10:16.538Z,96.66
2023-05-07T06:11:15.509Z,97.27
2023-05-07T06:12:15.499Z,96.66
2023-05-07T06:13:15.535Z,97.06
2023-05-07T06:14:15.480Z,97.06
2023-05-07T06:15:15.550Z,97.06
2023-05-07T06:16:15.546Z,96.66
2023-05-07T06:17:15.463Z,97.88
2023-05-07T06:18:16.350Z,96.86
2023-05-07T06:19:15.476Z,97.78
2023-05-07T06:20:15.466Z,96.71
2023-05-07T06:21:15.479Z,96.92
2023-05-07T06:22:15.422Z,96.66
2023-05-07T06:23:17.647Z,96.86
2023-05-07T06:24:16.494Z,97.37
2023-05-07T06:25:15.401Z,96.70
2023-05-07T06:26:15.389Z,97.16
2023-05-07T06:27:15.384Z,97.16
2023-05-07T06:28:15.376Z,97.27
2023-05-07T06:29:15.394Z,97.06
2023-05-07T06:30:15.361Z,96.86
2023-05-07T06:31:15.434Z,97.57
2023-05-07T06:32:15.400Z,97.27
2023-05-07T06:33:15.377Z,97.27
2023-05-07T06:34:15.346Z,96.86
2023-05-07T06:35:15.402Z,96.66
2023-05-07T06:36:15.317Z,96.86
2023-05-07T06:37:15.310Z,97.47
2023-05-07T06:38:15.325Z,96.86
2023-05-07T06:39:16.287Z,96.81
2023-05-07T06:40:15.284Z,96.81
2023-05-07T06:41:15.277Z,96.61
2023-05-07T06:42:15.268Z,96.81
2023-05-07T06:43:15.284Z,96.55
2023-05-07T06:44:15.256Z,97.27
2023-05-07T06:45:15.239Z,97.83
2023-05-07T06:46:15.263Z,96.71
2023-05-07T06:47:16.406Z,95.89
2023-05-07T06:48:16.239Z,95.59
2023-05-07T06:49:15.206Z,96.20
2023-05-07T06:50:15.228Z,96.10
2023-05-07T06:51:15.206Z,96.51
2023-05-07T06:52:15.219Z,96.51
2023-05-07T06:53:15.178Z,95.79
2023-05-07T06:54:15.195Z,95.89
2023-05-07T06:55:15.172Z,96.51
2023-05-07T06:56:15.160Z,96.25
2023-05-07T06:57:15.177Z,96.30
2023-05-07T06:58:15.144Z,95.94
2023-05-07T06:59:15.170Z,96.20
2023-05-07T07:00:15.132Z,96.00
2023-05-07T07:01:15.191Z,95.48
2023-05-07T07:02:16.999Z,95.84
2023-05-07T07:03:15.160Z,95.69
2023-05-07T07:04:15.120Z,96.51
2023-05-07T07:05:15.100Z,96.41
2023-05-07T07:06:15.112Z,95.89
2023-05-07T07:07:15.092Z,96.86
2023-05-07T07:08:15.063Z,96.10
2023-05-07T07:09:15.061Z,96.00
2023-05-07T07:10:15.065Z,96.75
2023-05-07T07:11:15.070Z,96.81
2023-05-07T07:12:15.041Z,96.71
2023-05-07T07:13:15.027Z,96.61
2023-05-07T07:14:15.007Z,96.71
2023-05-07T07:15:15.011Z,96.61
2023-05-07T07:16:15.061Z,96.00
2023-05-07T07:17:14.990Z,96.20
2023-05-07T07:18:14.984Z,96.10
2023-05-07T07:19:15.025Z,95.64
2023-05-07T07:20:15.083Z,96.05
2023-05-07T07:21:14.981Z,96.10
2023-05-07T07:22:14.949Z,96.05
2023-05-07T07:23:14.970Z,95.54
2023-05-07T07:24:14.963Z,95.70
2023-05-07T07:25:14.997Z,95.29
2023-05-07T07:26:14.945Z,95.19
2023-05-07T07:27:14.915Z,95.09
2023-05-07T07:28:14.907Z,95.09
2023-05-07T07:29:14.925Z,95.03
2023-05-07T07:30:14.915Z,94.98
2023-05-07T07:31:14.905Z,94.52
2023-05-07T07:32:14.881Z,95.44
2023-05-07T07:33:14.863Z,94.48
2023-05-07T07:34:14.883Z,94.48
2023-05-07T07:35:15.085Z,93.86
2023-05-07T07:36:14.840Z,94.48
2023-05-07T07:37:14.857Z,94.42
2023-05-07T07:38:14.837Z,95.23
2023-05-07T07:39:14.852Z,94.68
2023-05-07T07:40:14.841Z,94.12
2023-05-07T07:41:15.812Z,93.25
2023-05-07T07:42:14.803Z,94.12
2023-05-07T07:43:14.869Z,94.48
2023-05-07T07:44:15.927Z,94.27
2023-05-07T07:45:15.782Z,93.66
2023-05-07T07:46:14.808Z,94.07
2023-05-07T07:47:14.793Z,94.27
2023-05-07T07:48:14.795Z,94.12
2023-05-07T07:49:14.784Z,93.92
2023-05-07T07:50:21.976Z,93.55
2023-05-07T07:51:16.788Z,93.35
2023-05-07T07:52:14.726Z,94.43
2023-05-07T07:53:14.730Z,94.02
2023-05-07T07:54:14.760Z,93.71
2023-05-07T07:55:14.705Z,93.62
2023-05-07T07:56:14.778Z,93.10
2023-05-07T07:57:14.697Z,93.71
2023-05-07T07:58:14.700Z,93.51
2023-05-07T07:59:14.704Z,93.21
2023-05-07T08:00:14.695Z,93.16
2023-05-07T08:01:14.656Z,92.86
2023-05-07T08:02:14.721Z,92.35
2023-05-07T08:03:14.789Z,93.47
2023-05-07T08:04:14.693Z,93.37
2023-05-07T08:05:14.643Z,93.37
2023-05-07T08:06:15.306Z,92.59
2023-05-07T08:07:15.664Z,93.37
2023-05-07T08:08:14.632Z,92.65
2023-05-07T08:09:14.612Z,93.32
2023-05-07T08:10:14.612Z,91.79
2023-05-07T08:11:14.584Z,91.78
2023-05-07T08:12:14.571Z,92.69
2023-05-07T08:13:14.656Z,92.59
2023-05-07T08:14:14.570Z,93.10
2023-05-07T08:15:14.555Z,92.55
2023-05-07T08:16:14.638Z,92.00
2023-05-07T08:17:14.640Z,91.81
2023-05-07T08:18:14.617Z,90.32
2023-05-07T08:19:14.526Z,91.59
2023-05-07T08:20:14.651Z,91.89
2023-05-07T08:21:14.567Z,90.83
2023-05-07T08:22:14.546Z,90.98
2023-05-07T08:23:14.634Z,91.55
2023-05-07T08:24:14.507Z,91.81
2023-05-07T08:25:14.492Z,90.22
2023-05-07T08:26:14.531Z,90.89
2023-05-07T08:27:14.494Z,90.24
2023-05-07T08:28:14.486Z,89.73
2023-05-07T08:29:14.469Z,90.38
2023-05-07T08:30:14.478Z,90.18
2023-05-07T08:31:14.575Z,90.64
2023-05-07T08:32:14.453Z,89.12
2023-05-07T08:33:14.458Z,88.51
2023-05-07T08:34:14.462Z,88.71
2023-05-07T08:35:14.414Z,89.96
2023-05-07T08:36:14.447Z,90.53
2023-05-07T08:37:14.421Z,90.88
2023-05-07T08:38:14.400Z,91.35
2023-05-07T08:39:14.393Z,90.22
2023-05-07T08:40:14.798Z,91.28
2023-05-07T08:41:15.442Z,90.42
2023-05-07T08:42:14.371Z,90.73
2023-05-07T08:43:15.354Z,90.63
2023-05-07T08:44:14.350Z,91.03
2023-05-07T08:45:15.408Z,89.16
2023-05-07T08:46:15.239Z,90.22
2023-05-07T08:47:14.314Z,90.12
2023-05-07T08:48:14.312Z,90.32
2023-05-07T08:49:14.314Z,90.44
2023-05-07T08:50:14.333Z,89.16
2023-05-07T08:51:14.280Z,89.63
2023-05-07T08:52:14.288Z,88.40
2023-05-07T08:53:14.262Z,89.38
2023-05-07T08:54:14.335Z,87.51
2023-05-07T08:55:15.431Z,88.77
2023-05-07T08:56:14.279Z,86.74
2023-05-07T08:57:14.282Z,87.61
2023-05-07T08:58:14.236Z,86.69
2023-05-07T08:59:14.289Z,87.69
2023-05-07T09:00:14.281Z,87.79
2023-05-07T09:01:14.320Z,88.63
2023-05-07T09:02:14.288Z,87.47
2023-05-07T09:03:14.271Z,86.51
2023-05-07T09:04:14.384Z,86.59
2023-05-07T09:05:14.288Z,87.10
2023-05-07T09:06:14.178Z,87.75
2023-05-07T09:07:14.156Z,88.46
2023-05-07T09:08:14.171Z,88.31
2023-05-07T09:09:14.181Z,89.63
2023-05-07T09:10:14.153Z,88.16
2023-05-07T09:11:14.174Z,88.36
2023-05-07T09:12:14.140Z,88.67
2023-05-07T09:13:14.220Z,88.69
2023-05-07T09:14:14.130Z,86.96
2023-05-07T09:15:14.173Z,86.25
2023-05-07T09:16:14.158Z,85.64
2023-05-07T09:17:14.091Z,86.90
2023-05-07T09:18:16.538Z,87.14
2023-05-07T09:19:14.107Z,87.00
2023-05-07T09:20:14.054Z,87.55
2023-05-07T09:21:15.057Z,88.81
2023-05-07T09:22:14.042Z,87.85
2023-05-07T09:23:14.056Z,88.61
2023-05-07T09:24:14.034Z,88.36
2023-05-07T09:25:14.332Z,88.67
2023-05-07T09:26:14.052Z,88.34
2023-05-07T09:27:14.066Z,89.18
2023-05-07T09:28:14.016Z,87.65
2023-05-07T09:29:13.987Z,88.81
2023-05-07T09:30:14.060Z,88.92
2023-05-07T09:31:14.030Z,88.24
2023-05-07T09:32:14.730Z,88.75
2023-05-07T09:33:13.989Z,88.75
2023-05-07T09:34:13.981Z,87.65
2023-05-07T09:35:13.935Z,87.41
2023-05-07T09:36:13.935Z,86.53
2023-05-07T09:37:13.952Z,87.75
2023-05-07T09:38:13.932Z,86.74
2023-05-07T09:39:13.916Z,86.74
2023-05-07T09:40:13.928Z,88.16
2023-05-07T09:41:13.899Z,87.51
2023-05-07T09:42:13.925Z,86.29
2023-05-07T09:43:13.892Z,87.65
2023-05-07T09:44:13.871Z,88.12
2023-05-07T09:45:13.967Z,86.55
2023-05-07T09:46:14.071Z,87.26
2023-05-07T09:47:14.433Z,86.65
2023-05-07T09:48:13.840Z,86.21
2023-05-07T09:49:13.828Z,85.94
2023-05-07T09:50:13.830Z,85.70
2023-05-07T09:51:14.393Z,87.43
2023-05-07T09:52:14.728Z,84.38
2023-05-07T09:53:13.922Z,85.60
2023-05-07T09:54:13.799Z,84.64
2023-05-07T09:55:13.833Z,83.89
2023-05-07T09:56:13.809Z,85.58
2023-05-07T09:57:13.771Z,83.85
2023-05-07T09:58:13.768Z,84.30
2023-05-07T09:59:13.891Z,83.83
2023-05-07T10:00:13.780Z,84.80
2023-05-07T10:01:13.804Z,85.47
2023-05-07T10:02:13.772Z,84.30
2023-05-07T10:03:13.893Z,83.73
2023-05-07T10:04:13.730Z,83.75
2023-05-07T10:05:13.860Z,83.34
2023-05-07T10:06:13.771Z,83.40
2023-05-07T10:07:13.691Z,82.12
2023-05-07T10:08:13.680Z,83.38
2023-05-07T10:09:13.681Z,85.21
2023-05-07T10:10:13.707Z,84.13
2023-05-07T10:11:13.692Z,83.69
2023-05-07T10:12:13.703Z,83.99
2023-05-07T10:13:13.732Z,84.12
2023-05-07T10:14:13.645Z,84.01
2023-05-07T10:15:13.955Z,83.28
2023-05-07T10:16:13.631Z,85.33
2023-05-07T10:17:13.628Z,83.77
2023-05-07T10:18:13.760Z,82.53
2023-05-07T10:19:13.638Z,82.53
2023-05-07T10:20:13.623Z,83.10
2023-05-07T10:21:13.585Z,82.50
2023-05-07T10:22:13.582Z,81.88
2023-05-07T10:23:13.586Z,82.39
2023-05-07T10:24:13.588Z,82.70
2023-05-07T10:25:13.803Z,82.29
2023-05-07T10:26:13.550Z,83.65
2023-05-07T10:27:13.536Z,83.40
2023-05-07T10:28:13.537Z,83.31
2023-05-07T10:29:13.553Z,82.29
2023-05-07T10:30:13.551Z,82.70
2023-05-07T10:31:13.586Z,81.95
2023-05-07T10:32:13.507Z,81.82
2023-05-07T10:33:13.525Z,82.94
2023-05-07T10:34:13.535Z,82.43
2023-05-07T10:35:13.652Z,83.28
2023-05-07T10:36:13.489Z,83.34
2023-05-07T10:37:13.473Z,82.78
2023-05-07T10:38:13.471Z,82.73
2023-05-07T10:39:13.520Z,80.87
2023-05-07T10:40:13.492Z,83.45
2023-05-07T10:41:13.440Z,81.88
2023-05-07T10:42:13.482Z,82.29
2023-05-07T10:43:13.451Z,81.82
2023-05-07T10:44:13.519Z,81.21
2023-05-07T10:45:13.416Z,82.33
2023-05-07T10:46:13.480Z,82.17
2023-05-07T10:47:13.522Z,83.24
2023-05-07T10:48:27.835Z,81.92
2023-05-07T10:49:15.381Z,81.99
2023-05-07T10:50:13.448Z,81.88
2023-05-07T10:51:13.386Z,81.67
2023-05-07T10:52:13.409Z,80.25
2023-05-07T10:53:13.376Z,80.22
2023-05-07T10:54:13.342Z,80.79
2023-05-07T10:55:13.397Z,81.13
2023-05-07T10:56:13.334Z,81.48
2023-05-07T10:57:13.352Z,80.32
2023-05-07T10:58:20.062Z,80.87
2023-05-07T10:59:15.308Z,81.74
2023-05-07T11:00:13.370Z,80.87
2023-05-07T11:01:13.300Z,80.22
2023-05-07T11:02:13.362Z,79.92
2023-05-07T11:03:13.372Z,79.98
2023-05-07T11:04:13.282Z,79.24
2023-05-07T11:05:13.592Z,79.74
2023-05-07T11:06:13.267Z,79.85
2023-05-07T11:07:13.286Z,79.98
2023-05-07T11:08:13.237Z,79.94
2023-05-07T11:09:13.236Z,80.32
2023-05-07T11:10:13.253Z,81.20
2023-05-07T11:11:13.235Z,78.83
2023-05-07T11:12:13.228Z,79.44
2023-05-07T11:13:13.290Z,79.24
2023-05-07T11:14:13.203Z,77.78
2023-05-07T11:15:13.466Z,78.63
2023-05-07T11:16:13.261Z,79.71
2023-05-07T11:17:13.169Z,78.35
2023-05-07T11:18:13.183Z,77.95
2023-05-07T11:19:13.207Z,77.75
2023-05-07T11:20:13.142Z,77.75
2023-05-07T11:21:13.216Z,77.84
2023-05-07T11:22:13.131Z,78.59
2023-05-07T11:23:13.125Z,79.00
2023-05-07T11:24:13.117Z,78.89
2023-05-07T11:25:13.269Z,77.48
2023-05-07T11:26:13.116Z,80.08
2023-05-07T11:27:13.086Z,79.03
2023-05-07T11:28:13.081Z,79.50
2023-05-07T11:29:13.068Z,78.55
2023-05-07T11:30:13.089Z,77.78
2023-05-07T11:31:13.103Z,77.78
2023-05-07T11:32:13.196Z,77.78
2023-05-07T11:33:13.065Z,78.93
2023-05-07T11:34:13.034Z,79.74
2023-05-07T11:35:13.365Z,79.91
2023-05-07T11:36:13.033Z,77.61
2023-05-07T11:37:13.009Z,78.89
2023-05-07T11:38:13.006Z,79.00
2023-05-07T11:39:13.003Z,78.89
2023-05-07T11:40:44.928Z,78.39
2023-05-07T11:41:12.989Z,79.71
2023-05-07T11:42:12.967Z,77.82
2023-05-07T11:43:12.960Z,79.03
2023-05-07T11:44:12.953Z,79.54
2023-05-07T11:45:13.177Z,77.92
2023-05-07T11:46:12.983Z,78.33
2023-05-07T11:47:12.929Z,78.02
2023-05-07T11:48:13.027Z,78.42
2023-05-07T11:49:12.941Z,79.00
2023-05-07T11:51:00.437Z,78.79
2023-05-07T11:51:13.499Z,77.48
2023-05-07T11:52:12.903Z,77.58
2023-05-07T11:53:13.989Z,77.58
2023-05-07T11:54:13.959Z,77.64
2023-05-07T11:55:13.105Z,77.58
2023-05-07T11:56:12.863Z,78.73
2023-05-07T11:57:12.871Z,79.47
2023-05-07T11:58:12.915Z,79.88
2023-05-07T11:59:12.864Z,80.45
2023-05-07T12:00:12.820Z,79.71
2023-05-07T12:01:12.829Z,79.00
2023-05-07T12:02:12.876Z,80.05
2023-05-07T12:03:13.438Z,80.19
2023-05-07T12:04:12.946Z,80.19
2023-05-07T12:05:13.070Z,79.51
2023-05-07T12:06:12.862Z,80.77
2023-05-07T12:07:12.788Z,80.12
2023-05-07T12:08:12.854Z,80.46
2023-05-07T12:09:12.758Z,81.64
2023-05-07T12:10:12.752Z,79.94
2023-05-07T12:11:12.749Z,79.03
2023-05-07T12:12:12.761Z,79.36
2023-05-07T12:13:12.807Z,79.57
2023-05-07T12:14:12.780Z,78.92
2023-05-07T12:15:12.990Z,77.54
2023-05-07T12:16:12.714Z,78.01
2023-05-07T12:17:12.792Z,79.00
2023-05-07T12:18:12.768Z,77.48
2023-05-07T12:19:15.048Z,79.44
2023-05-07T12:20:13.281Z,78.59
2023-05-07T12:21:12.658Z,79.24
2023-05-07T12:22:12.677Z,79.71
2023-05-07T12:23:12.673Z,78.22
2023-05-07T12:24:12.758Z,78.89
2023-05-07T12:25:12.848Z,77.88
2023-05-07T12:26:12.626Z,79.91
2023-05-07T12:27:12.646Z,78.75
2023-05-07T12:28:12.654Z,78.21
2023-05-07T12:29:12.616Z,79.50
2023-05-07T12:30:12.647Z,78.86
2023-05-07T12:31:12.657Z,78.75
2023-05-07T12:32:12.654Z,76.46
2023-05-07T12:33:12.576Z,77.17
2023-05-07T12:34:12.571Z,77.98
2023-05-07T12:35:12.733Z,78.22
2023-05-07T12:36:12.574Z,78.26
2023-05-07T12:37:12.568Z,79.03
2023-05-07T12:38:12.543Z,79.74
2023-05-07T12:39:12.529Z,79.72
2023-05-07T12:40:12.539Z,80.49
2023-05-07T12:41:12.553Z,79.85
2023-05-07T12:42:12.513Z,79.40
2023-05-07T12:43:12.486Z,79.71
2023-05-07T12:44:12.493Z,79.20
2023-05-07T12:45:12.577Z,79.30
2023-05-07T12:46:12.512Z,79.74
2023-05-07T12:47:12.453Z,80.21
2023-05-07T12:48:12.460Z,79.57
2023-05-07T12:49:12.556Z,79.40
2023-05-07T12:50:12.467Z,79.88
2023-05-07T12:51:12.462Z,79.61
2023-05-07T12:52:12.426Z,80.12
2023-05-07T12:53:13.457Z,80.12